createdAt,value
2023-07-16T00:00:30.490Z,101550.91
2023-07-16T00:02:58.674Z,101550.41
2023-07-16T00:05:26.700Z,101564.67
2023-07-16T00:08:03.307Z,101571.02
2023-07-16T00:10:31.704Z,101561.50
2023-07-16T00:12:59.644Z,101546.23
2023-07-16T00:15:29.209Z,101546.79
2023-07-16T00:17:57.531Z,101539.73
2023-07-16T00:20:28.655Z,101546.92
2023-07-16T00:22:59.717Z,101555.42
2023-07-16T00:25:27.661Z,101563.14
2023-07-16T00:27:55.562Z,101558.20
2023-07-16T00:30:27.200Z,101549.24
2023-07-16T00:32:58.119Z,101559.31
2023-07-16T00:35:26.151Z,101556.20
2023-07-16T00:37:54.260Z,101573.90
2023-07-16T00:40:22.336Z,101585.02
2023-07-16T00:42:50.270Z,101590.02
2023-07-16T00:45:18.258Z,101578.41
2023-07-16T00:47:47.006Z,101583.15
2023-07-16T00:50:15.765Z,101599.27
2023-07-16T00:52:43.922Z,101606.11
2023-07-16T00:55:12.230Z,101617.23
2023-07-16T00:57:42.338Z,101615.88
2023-07-16T01:00:12.191Z,101625.40
2023-07-16T01:02:40.348Z,101616.99
2023-07-16T01:05:08.729Z,101624.09
2023-07-16T01:07:39.380Z,101619.64
2023-07-16T01:10:08.038Z,101619.68
2023-07-16T01:12:36.383Z,101626.58
2023-07-16T01:15:04.746Z,101628.70
2023-07-16T01:17:32.735Z,101624.22
2023-07-16T01:20:00.647Z,101623.47
2023-07-16T01:22:47.884Z,101620.04
2023-07-16T01:25:33.525Z,101618.47
2023-07-16T01:28:51.354Z,101607.94
2023-07-16T01:31:20.112Z,101621.90
2023-07-16T01:33:48.855Z,101634.00
2023-07-16T01:36:18.669Z,101634.52
2023-07-16T01:38:47.740Z,101650.84
2023-07-16T01:41:15.733Z,101650.58
2023-07-16T01:43:43.630Z,101649.53
2023-07-16T01:46:11.561Z,101652.96
2023-07-16T01:48:40.662Z,101652.41
2023-07-16T01:51:08.632Z,101663.23
2023-07-16T01:53:36.589Z,101670.59
2023-07-16T01:56:04.752Z,101672.68
2023-07-16T01:58:32.677Z,101684.00
2023-07-16T02:01:01.174Z,101686.65
2023-07-16T02:03:29.253Z,101668.73
2023-07-16T02:05:57.441Z,101665.81
2023-07-16T02:08:25.352Z,101672.65
2023-07-16T02:10:53.421Z,101685.57
2023-07-16T02:13:21.314Z,101682.40
2023-07-16T02:15:49.237Z,101667.91
2023-07-16T02:18:17.220Z,101680.01
2023-07-16T02:20:45.880Z,101676.58
2023-07-16T02:23:13.790Z,101675.76
2023-07-16T02:25:41.715Z,101684.20
2023-07-16T02:28:09.628Z,101678.63
2023-07-16T02:30:37.570Z,101679.98
2023-07-16T02:33:05.612Z,101686.25
2023-07-16T02:35:33.503Z,101680.47
2023-07-16T02:38:01.405Z,101688.34
2023-07-16T02:40:29.346Z,101699.95
2023-07-16T02:42:57.314Z,101696.52
2023-07-16T02:45:25.211Z,101694.13
2023-07-16T02:47:53.221Z,101698.65
2023-07-16T02:50:21.251Z,101701.27
2023-07-16T02:52:49.180Z,101706.53
2023-07-16T02:55:17.136Z,101707.34
2023-07-16T02:57:45.016Z,101704.44
2023-07-16T03:00:13.346Z,101702.05
2023-07-16T03:02:41.387Z,101683.64
2023-07-16T03:05:10.686Z,101683.08
2023-07-16T03:07:38.611Z,101692.83
2023-07-16T03:10:06.947Z,101693.05
2023-07-16T03:12:35.043Z,101701.27
2023-07-16T03:15:03.047Z,101710.95
2023-07-16T03:17:30.963Z,101712.48
2023-07-16T03:19:58.839Z,101732.49
2023-07-16T03:22:26.877Z,101737.89
2023-07-16T03:24:54.895Z,101740.99
2023-07-16T03:27:24.148Z,101741.19
2023-07-16T03:29:53.041Z,101746.09
2023-07-16T03:32:21.131Z,101761.27
2023-07-16T03:34:49.120Z,101760.41
2023-07-16T03:37:17.106Z,101762.74
2023-07-16T03:39:45.093Z,101766.44
2023-07-16T03:42:13.038Z,101765.91
2023-07-16T03:44:41.092Z,101774.80
2023-07-16T03:47:09.019Z,101777.95
2023-07-16T03:49:37.153Z,101780.53
2023-07-16T03:52:05.300Z,101787.88
2023-07-16T03:54:33.259Z,101765.03
2023-07-16T03:57:01.255Z,101777.06
2023-07-16T03:59:29.162Z,101777.59
2023-07-16T04:01:57.224Z,101789.95
2023-07-16T04:04:25.167Z,101784.98
2023-07-16T04:06:53.050Z,101791.77
2023-07-16T04:09:21.000Z,101788.34
2023-07-16T04:11:48.976Z,101805.09
2023-07-16T04:14:16.916Z,101812.90
2023-07-16T04:16:45.072Z,101799.95
2023-07-16T04:19:13.108Z,101797.56
2023-07-16T04:21:41.612Z,101819.08
2023-07-16T04:24:09.562Z,101804.86
2023-07-16T04:26:37.500Z,101810.71
2023-07-16T04:29:06.162Z,101820.39
2023-07-16T04:31:34.130Z,101825.36
2023-07-16T04:34:02.084Z,101816.70
2023-07-16T04:36:30.051Z,101821.20
2023-07-16T04:38:57.934Z,101832.45
2023-07-16T04:41:25.991Z,101830.66
2023-07-16T04:43:53.948Z,101826.51
2023-07-16T04:46:21.983Z,101823.01
2023-07-16T04:48:49.925Z,101801.00
2023-07-16T04:51:18.018Z,101814.02
2023-07-16T04:53:46.721Z,101834.65
2023-07-16T04:56:15.840Z,101827.55
2023-07-16T04:58:44.961Z,101823.07
2023-07-16T05:01:13.327Z,101843.05
2023-07-16T05:03:41.453Z,101843.54
2023-07-16T05:06:09.526Z,101853.22
2023-07-16T05:08:37.422Z,101861.36
2023-07-16T05:11:05.391Z,101859.89
2023-07-16T05:13:33.311Z,101866.27
2023-07-16T05:16:01.292Z,101859.40
2023-07-16T05:18:29.383Z,101852.30
2023-07-16T05:20:57.372Z,101846.59
2023-07-16T05:23:25.387Z,101848.80
2023-07-16T05:25:53.267Z,101838.60
2023-07-16T05:28:21.812Z,101841.71
2023-07-16T05:30:49.980Z,101845.93
2023-07-16T05:33:17.939Z,101853.77
2023-07-16T05:35:51.716Z,101858.48
2023-07-16T05:38:19.716Z,101850.34
2023-07-16T05:40:47.691Z,101864.80
2023-07-16T05:43:17.172Z,101869.27
2023-07-16T05:45:45.192Z,101869.54
2023-07-16T05:48:14.253Z,101863.26
2023-07-16T05:50:42.368Z,101862.24
2023-07-16T05:53:10.386Z,101854.10
2023-07-16T05:55:38.308Z,101854.40
2023-07-16T05:58:06.233Z,101858.65
2023-07-16T06:00:34.418Z,101853.22
2023-07-16T06:03:03.633Z,101826.96
2023-07-16T06:05:36.392Z,101826.77
2023-07-16T06:08:04.449Z,101845.21
2023-07-16T06:10:32.367Z,101840.50
2023-07-16T06:13:00.326Z,101853.19
2023-07-16T06:15:28.328Z,101841.61
2023-07-16T06:17:56.232Z,101851.91
2023-07-16T06:20:24.237Z,101844.00
2023-07-16T06:22:52.271Z,101840.11
2023-07-16T06:25:20.221Z,101834.84
2023-07-16T06:27:48.245Z,101839.32
2023-07-16T06:30:16.447Z,101851.75
2023-07-16T06:32:44.368Z,101854.92
2023-07-16T06:35:12.484Z,101845.18
2023-07-16T06:37:40.422Z,101839.98
2023-07-16T06:40:09.327Z,101826.54
2023-07-16T06:42:37.411Z,101831.05
2023-07-16T06:45:05.710Z,101829.77
2023-07-16T06:47:33.858Z,101821.41
2023-07-16T06:50:01.888Z,101820.13
2023-07-16T06:52:30.096Z,101814.90
2023-07-16T06:54:58.207Z,101814.14
2023-07-16T06:57:26.294Z,101805.48
2023-07-16T06:59:54.347Z,101799.46
2023-07-16T07:02:23.287Z,101799.98
2023-07-16T07:04:51.445Z,101801.59
2023-07-16T07:07:19.510Z,101803.71
2023-07-16T07:09:51.170Z,101803.98
2023-07-16T07:12:19.114Z,101810.02
2023-07-16T07:14:47.135Z,101815.32
2023-07-16T07:17:15.065Z,101824.28
2023-07-16T07:19:43.887Z,101829.32
2023-07-16T07:22:11.964Z,101821.63
2023-07-16T07:24:40.088Z,101831.15
2023-07-16T07:27:08.404Z,101822.19
2023-07-16T07:29:36.436Z,101821.63
2023-07-16T07:32:04.401Z,101812.18
2023-07-16T07:34:32.383Z,101806.88
2023-07-16T07:37:00.397Z,101804.23
2023-07-16T07:39:28.496Z,101792.40
2023-07-16T07:41:56.420Z,101788.48
2023-07-16T07:44:24.350Z,101796.35
2023-07-16T07:46:52.458Z,101790.05
2023-07-16T07:49:20.483Z,101787.92
2023-07-16T07:51:49.893Z,101791.62
2023-07-16T07:54:18.654Z,101803.22
2023-07-16T07:56:48.302Z,101796.62
2023-07-16T07:59:16.391Z,101792.13
2023-07-16T08:01:44.498Z,101789.23
2023-07-16T08:04:12.709Z,101790.27
2023-07-16T08:06:40.758Z,101786.31
2023-07-16T08:09:08.781Z,101797.14
2023-07-16T08:11:36.667Z,101794.49
2023-07-16T08:14:04.703Z,101793.97
2023-07-16T08:16:32.646Z,101782.62
2023-07-16T08:19:00.671Z,101793.18
2023-07-16T08:21:28.601Z,101792.63
2023-07-16T08:23:56.565Z,101778.86
2023-07-16T08:26:24.454Z,101782.55
2023-07-16T08:28:52.312Z,101781.21
2023-07-16T08:31:20.240Z,101776.73
2023-07-16T08:33:48.187Z,101771.47
2023-07-16T08:36:16.384Z,101774.31
2023-07-16T08:38:44.672Z,101771.66
2023-07-16T08:41:12.696Z,101776.37
2023-07-16T08:43:42.298Z,101780.56
2023-07-16T08:46:11.043Z,101767.58
2023-07-16T08:48:39.175Z,101785.79
2023-07-16T08:51:09.725Z,101780.70
2023-07-16T08:53:37.886Z,101783.87
2023-07-16T08:56:07.977Z,101780.92
2023-07-16T08:58:36.585Z,101780.07
2023-07-16T09:01:04.984Z,101783.73
2023-07-16T09:03:32.952Z,101790.86
2023-07-16T09:06:01.059Z,101792.13
2023-07-16T09:08:30.999Z,101786.80
2023-07-16T09:10:59.907Z,101802.41
2023-07-16T09:13:29.496Z,101795.51
2023-07-16T09:15:59.735Z,101796.78
2023-07-16T09:18:29.619Z,101783.27
2023-07-16T09:21:04.264Z,101778.77
2023-07-16T09:23:33.229Z,101780.82
2023-07-16T09:26:01.205Z,101777.95
2023-07-16T09:28:29.189Z,101777.91
2023-07-16T09:30:57.153Z,101772.02
2023-07-16T09:33:28.419Z,101765.91
2023-07-16T09:35:56.576Z,101769.37
2023-07-16T09:38:26.662Z,101768.79
2023-07-16T09:40:55.536Z,101776.96
2023-07-16T09:43:24.451Z,101784.06
2023-07-16T09:45:52.493Z,101771.63
2023-07-16T09:48:20.642Z,101779.84
2023-07-16T09:50:55.218Z,101783.21
2023-07-16T09:53:25.603Z,101778.96
2023-07-16T09:55:55.838Z,101783.14
2023-07-16T09:58:25.573Z,101780.95
2023-07-16T10:00:53.866Z,101785.63
2023-07-16T10:03:21.942Z,101793.91
2023-07-16T10:05:50.387Z,101792.92
2023-07-16T10:08:20.190Z,101794.72
2023-07-16T10:10:56.236Z,101792.86
2023-07-16T10:13:27.270Z,101781.15
2023-07-16T10:16:00.755Z,101772.58
2023-07-16T10:18:33.366Z,101779.97
2023-07-16T10:21:11.836Z,101782.06
2023-07-16T10:23:44.542Z,101773.56
2023-07-16T10:26:19.004Z,101783.80
2023-07-16T10:28:48.745Z,101777.36
2023-07-16T10:31:27.535Z,101783.96
2023-07-16T10:34:03.156Z,101786.35
2023-07-16T10:36:31.291Z,101783.96
2023-07-16T10:39:06.713Z,101788.73
2023-07-16T10:41:35.568Z,101789.48
2023-07-16T10:44:04.413Z,101778.34
2023-07-16T10:46:35.595Z,101781.48
2023-07-16T10:49:03.705Z,101789.13
2023-07-16T10:51:31.783Z,101787.85
2023-07-16T10:54:00.098Z,101786.80
2023-07-16T10:56:28.272Z,101789.20
2023-07-16T10:58:57.632Z,101786.80
2023-07-16T11:01:25.774Z,101786.80
2023-07-16T11:03:54.103Z,101791.88
2023-07-16T11:06:23.384Z,101784.45
2023-07-16T11:08:52.426Z,101782.16
2023-07-16T11:11:30.822Z,101787.76
2023-07-16T11:13:58.922Z,101772.65
2023-07-16T11:16:26.976Z,101787.20
2023-07-16T11:18:55.155Z,101779.25
2023-07-16T11:21:23.359Z,101783.96
2023-07-16T11:23:51.355Z,101783.44
2023-07-16T11:26:19.324Z,101767.45
2023-07-16T11:28:47.387Z,101774.25
2023-07-16T11:31:20.993Z,101769.93
2023-07-16T11:33:50.347Z,101783.63
2023-07-16T11:36:19.570Z,101782.49
2023-07-16T11:38:47.567Z,101782.39
2023-07-16T11:41:15.548Z,101772.78
2023-07-16T11:43:43.990Z,101778.20
2023-07-16T11:46:22.130Z,101766.73
2023-07-16T11:48:50.449Z,101763.72
2023-07-16T11:51:18.464Z,101759.08
2023-07-16T11:53:46.376Z,101755.02
2023-07-16T11:56:14.435Z,101760.55
2023-07-16T11:58:42.676Z,101762.58
2023-07-16T12:01:10.820Z,101758.00
2023-07-16T12:03:38.820Z,101760.13
2023-07-16T12:06:06.791Z,101751.03
2023-07-16T12:08:34.885Z,101746.23
2023-07-16T12:11:03.273Z,101756.23
2023-07-16T12:13:31.338Z,101751.95
2023-07-16T12:15:59.413Z,101748.71
2023-07-16T12:18:27.505Z,101755.02
2023-07-16T12:20:55.459Z,101755.28
2023-07-16T12:23:23.385Z,101747.53
2023-07-16T12:25:52.924Z,101736.97
2023-07-16T12:28:20.930Z,101728.44
2023-07-16T12:30:49.016Z,101726.34
2023-07-16T12:33:17.008Z,101725.43
2023-07-16T12:35:45.597Z,101740.02
2023-07-16T12:38:13.907Z,101729.81
2023-07-16T12:40:43.155Z,101735.01
2023-07-16T12:43:11.274Z,101725.69
2023-07-16T12:45:39.334Z,101727.03
2023-07-16T12:48:07.696Z,101739.49
2023-07-16T12:50:35.700Z,101744.07
2023-07-16T12:53:03.739Z,101735.66
2023-07-16T12:55:33.655Z,101736.45
2023-07-16T12:58:01.771Z,101744.39
2023-07-16T13:00:30.918Z,101734.87
2023-07-16T13:02:58.957Z,101734.09
2023-07-16T13:05:27.081Z,101731.87
2023-07-16T13:07:55.057Z,101737.82
2023-07-16T13:10:24.282Z,101736.13
2023-07-16T13:12:52.576Z,101739.59
2023-07-16T13:15:20.662Z,101745.70
2023-07-16T13:17:50.375Z,101739.26
2023-07-16T13:20:20.245Z,101733.77
2023-07-16T13:22:48.297Z,101730.62
2023-07-16T13:25:16.449Z,101726.84
2023-07-16T13:27:44.477Z,101731.22
2023-07-16T13:30:12.819Z,101725.13
2023-07-16T13:32:41.049Z,101714.15
2023-07-16T13:35:09.429Z,101708.85
2023-07-16T13:37:37.349Z,101727.62
2023-07-16T13:40:05.888Z,101718.27
2023-07-16T13:42:33.844Z,101712.88
2023-07-16T13:45:02.026Z,101715.26
2023-07-16T13:47:30.377Z,101707.25
2023-07-16T13:49:58.915Z,101707.70
2023-07-16T13:52:26.842Z,101707.15
2023-07-16T13:54:54.858Z,101706.49
2023-07-16T13:57:22.752Z,101706.37
2023-07-16T13:59:50.805Z,101699.04
2023-07-16T14:02:18.970Z,101689.59
2023-07-16T14:04:47.096Z,101691.39
2023-07-16T14:07:15.038Z,101697.08
2023-07-16T14:09:42.913Z,101697.50
2023-07-16T14:12:10.880Z,101692.11
2023-07-16T14:14:39.122Z,101681.64
2023-07-16T14:17:07.606Z,101684.00
2023-07-16T14:19:35.550Z,101686.22
2023-07-16T14:22:03.467Z,101679.45
2023-07-16T14:24:31.433Z,101683.15
2023-07-16T14:27:02.669Z,101682.23
2023-07-16T14:29:31.816Z,101674.09
2023-07-16T14:31:59.872Z,101660.26
2023-07-16T14:34:30.586Z,101665.23
2023-07-16T14:36:58.661Z,101664.64
2023-07-16T14:39:26.722Z,101661.14
2023-07-16T14:41:54.777Z,101650.45
2023-07-16T14:44:22.807Z,101660.23
2023-07-16T14:46:51.179Z,101650.74
2023-07-16T14:49:19.224Z,101656.86
2023-07-16T14:51:47.183Z,101655.94
2023-07-16T14:54:15.125Z,101651.27
2023-07-16T14:56:43.095Z,101643.68
2023-07-16T14:59:11.411Z,101640.84
2023-07-16T15:01:39.360Z,101648.65
2023-07-16T15:04:07.492Z,101640.08
2023-07-16T15:06:35.518Z,101636.02
2023-07-16T15:09:04.294Z,101640.15
2023-07-16T15:11:33.169Z,101637.83
2023-07-16T15:14:01.079Z,101632.04
2023-07-16T15:16:29.143Z,101631.94
2023-07-16T15:18:57.294Z,101626.67
2023-07-16T15:21:25.431Z,101634.72
2023-07-16T15:23:53.459Z,101632.59
2023-07-16T15:26:21.492Z,101634.39
2023-07-16T15:28:49.480Z,101628.77
2023-07-16T15:31:17.607Z,101639.98
2023-07-16T15:33:45.545Z,101631.74
2023-07-16T15:36:13.478Z,101649.95
2023-07-16T15:38:41.344Z,101639.98
2023-07-16T15:41:09.761Z,101637.27
2023-07-16T15:43:37.944Z,101633.37
2023-07-16T15:46:05.898Z,101640.24
2023-07-16T15:48:34.170Z,101643.16
2023-07-16T15:51:02.280Z,101641.42
2023-07-16T15:53:30.222Z,101643.35
2023-07-16T15:55:58.170Z,101643.16
2023-07-16T15:58:26.226Z,101638.48
2023-07-16T16:00:54.244Z,101642.24
2023-07-16T16:03:22.584Z,101641.42
2023-07-16T16:05:50.998Z,101639.30
2023-07-16T16:08:20.830Z,101636.55
2023-07-16T16:10:53.757Z,101643.97
2023-07-16T16:13:25.659Z,101632.63
2023-07-16T16:15:53.665Z,101644.53
2023-07-16T16:18:21.892Z,101630.86
2023-07-16T16:20:50.023Z,101631.61
2023-07-16T16:23:18.229Z,101635.73
2023-07-16T16:25:46.418Z,101639.43
2023-07-16T16:28:14.663Z,101635.70
2023-07-16T16:30:44.109Z,101639.79
2023-07-16T16:33:12.504Z,101644.20
2023-07-16T16:35:44.619Z,101638.51
2023-07-16T16:38:12.851Z,101644.17
2023-07-16T16:40:40.842Z,101630.63
2023-07-16T16:43:09.005Z,101645.05
2023-07-16T16:45:41.162Z,101646.75
2023-07-16T16:48:10.653Z,101632.76
2023-07-16T16:50:39.588Z,101640.70
2023-07-16T16:53:10.622Z,101641.06
2023-07-16T16:55:38.797Z,101639.46
2023-07-16T16:58:06.939Z,101629.29
2023-07-16T17:00:35.015Z,101631.94
2023-07-16T17:03:03.236Z,101642.01
2023-07-16T17:05:35.425Z,101646.82
2023-07-16T17:08:04.705Z,101646.75
2023-07-16T17:10:32.732Z,101640.05
2023-07-16T17:13:01.041Z,101651.85
2023-07-16T17:15:29.139Z,101649.07
2023-07-16T17:18:00.207Z,101652.90
2023-07-16T17:20:28.700Z,101648.42
2023-07-16T17:22:56.743Z,101645.64
2023-07-16T17:25:24.804Z,101645.41
2023-07-16T17:27:52.784Z,101647.34
2023-07-16T17:30:20.943Z,101644.20
2023-07-16T17:32:48.971Z,101644.01
2023-07-16T17:35:17.401Z,101641.62
2023-07-16T17:37:46.208Z,101651.20
2023-07-16T17:40:14.656Z,101654.11
2023-07-16T17:42:43.357Z,101648.26
2023-07-16T17:45:11.840Z,101641.62
2023-07-16T17:47:39.883Z,101648.26
2023-07-16T17:50:08.401Z,101661.34
2023-07-16T17:52:36.554Z,101661.89
2023-07-16T17:55:04.539Z,101658.39
2023-07-16T17:57:32.690Z,101663.37
2023-07-16T18:00:17.380Z,101668.46
2023-07-16T18:02:48.542Z,101660.84
2023-07-16T18:05:16.792Z,101650.45
2023-07-16T18:07:44.917Z,101639.33
2023-07-16T18:10:13.170Z,101662.38
2023-07-16T18:12:41.176Z,101656.98
2023-07-16T18:15:09.533Z,101671.70
2023-07-16T18:17:38.696Z,101663.04
2023-07-16T18:20:11.779Z,101673.80
2023-07-16T18:22:41.219Z,101660.48
2023-07-16T18:25:09.628Z,101661.83
2023-07-16T18:27:39.643Z,101668.30
2023-07-16T18:30:08.566Z,101684.91
2023-07-16T18:32:36.656Z,101700.34
2023-07-16T18:35:05.972Z,101704.17
2023-07-16T18:37:36.783Z,101669.25
2023-07-16T18:40:06.230Z,101667.45
2023-07-16T18:42:34.529Z,101673.60
2023-07-16T18:45:04.646Z,101672.36
2023-07-16T18:47:32.714Z,101669.77
2023-07-16T18:50:01.177Z,101671.41
2023-07-16T18:52:29.149Z,101678.90
2023-07-16T18:54:57.611Z,101671.80
2023-07-16T18:57:28.558Z,101657.31
2023-07-16T18:59:56.615Z,101667.71
2023-07-16T19:02:24.549Z,101671.24
2023-07-16T19:04:52.619Z,101671.57
2023-07-16T19:07:21.160Z,101668.17
2023-07-16T19:09:49.130Z,101667.71
2023-07-16T19:12:17.079Z,101666.70
2023-07-16T19:14:44.959Z,101668.34
2023-07-16T19:17:17.692Z,101668.89
2023-07-16T19:19:46.168Z,101664.97
2023-07-16T19:22:14.421Z,101676.94
2023-07-16T19:24:45.314Z,101684.33
2023-07-16T19:27:15.904Z,101699.43
2023-07-16T19:29:44.216Z,101714.28
2023-07-16T19:32:12.284Z,101716.17
2023-07-16T19:34:40.432Z,101710.09
2023-07-16T19:37:10.239Z,101695.31
2023-07-16T19:39:38.151Z,101704.56
2023-07-16T19:42:14.728Z,101715.45
2023-07-16T19:44:42.729Z,101711.50
2023-07-16T19:47:10.733Z,101707.57
2023-07-16T19:49:38.743Z,101718.98
2023-07-16T19:54:34.647Z,101724.09
2023-07-16T19:57:02.638Z,101722.26
2023-07-16T19:59:30.816Z,101725.49
2023-07-16T20:01:59.170Z,101715.72
2023-07-16T20:04:27.055Z,101724.97
2023-07-16T20:07:11.349Z,101721.57
2023-07-16T20:09:40.549Z,101725.00
2023-07-16T20:12:09.108Z,101730.59
2023-07-16T20:14:37.144Z,101739.09
2023-07-16T20:17:05.657Z,101734.09
2023-07-16T20:19:34.374Z,101738.57
2023-07-16T20:22:02.336Z,101738.12
2023-07-16T20:24:30.372Z,101759.24
2023-07-16T20:26:58.349Z,101769.31
2023-07-16T20:29:26.253Z,101768.79
2023-07-16T20:31:54.200Z,101750.84
2023-07-16T20:34:22.154Z,101764.31
2023-07-16T20:36:50.209Z,101763.49
2023-07-16T20:39:18.750Z,101764.31
2023-07-16T20:41:46.812Z,101769.64
2023-07-16T20:44:15.857Z,101757.73
2023-07-16T20:46:43.826Z,101758.52
2023-07-16T20:49:11.838Z,101751.91
2023-07-16T20:51:39.776Z,101755.38
2023-07-16T20:54:10.610Z,101738.45
2023-07-16T20:56:38.649Z,101739.78
2023-07-16T20:59:06.701Z,101733.73
2023-07-16T21:01:35.007Z,101753.29
2023-07-16T21:04:06.294Z,101761.79
2023-07-16T21:06:34.225Z,101762.31
2023-07-16T21:09:02.293Z,101781.67
2023-07-16T21:11:30.564Z,101781.38
2023-07-16T21:13:58.984Z,101774.80
2023-07-16T21:16:29.837Z,101772.98
2023-07-16T21:18:57.847Z,101770.36
2023-07-16T21:21:25.831Z,101776.18
2023-07-16T21:23:53.838Z,101775.36
2023-07-16T21:26:24.494Z,101773.04
2023-07-16T21:28:55.288Z,101777.23
2023-07-16T21:31:26.069Z,101779.61
2023-07-16T21:33:58.208Z,101779.09
2023-07-16T21:36:26.297Z,101781.45
2023-07-16T21:38:54.326Z,101768.46
2023-07-16T21:41:25.128Z,101762.94
2023-07-16T21:43:53.075Z,101767.41
2023-07-16T21:46:22.448Z,101764.51
2023-07-16T21:48:50.717Z,101770.55
2023-07-16T21:51:19.028Z,101772.65
2023-07-16T21:53:47.137Z,101779.81
2023-07-16T21:56:16.128Z,101792.23
2023-07-16T21:58:44.187Z,101789.33
2023-07-16T22:01:12.124Z,101788.24
2023-07-16T22:03:40.036Z,101794.88
2023-07-16T22:06:13.389Z,101799.37
2023-07-16T22:08:44.078Z,101802.50
2023-07-16T22:11:12.017Z,101796.68
2023-07-16T22:13:40.004Z,101796.16
2023-07-16T22:16:08.409Z,101789.00
2023-07-16T22:18:39.943Z,101786.09
2023-07-16T22:21:16.431Z,101784.75
2023-07-16T22:23:44.509Z,101790.57
2023-07-16T22:26:12.428Z,101796.39
2023-07-16T22:28:40.461Z,101803.55
2023-07-16T22:31:08.503Z,101809.37
2023-07-16T22:33:37.498Z,101804.34
2023-07-16T22:36:05.648Z,101812.28
2023-07-16T22:38:34.541Z,101812.28
2023-07-16T22:41:02.548Z,101806.46
2023-07-16T22:43:30.535Z,101797.50
2023-07-16T22:45:58.523Z,101801.98
2023-07-16T22:48:26.540Z,101801.98
2023-07-16T22:50:54.692Z,101806.98
2023-07-16T22:53:22.965Z,101800.93
2023-07-16T22:55:53.063Z,101814.54
2023-07-16T22:58:20.964Z,101818.43
2023-07-16T23:00:48.869Z,101818.13
2023-07-16T23:03:16.969Z,101821.53
2023-07-16T23:05:45.165Z,101823.10
2023-07-16T23:08:13.126Z,101813.88
2023-07-16T23:10:41.221Z,101813.13
2023-07-16T23:13:09.319Z,101804.70
2023-07-16T23:15:37.472Z,101812.09
2023-07-16T23:18:05.482Z,101814.77
2023-07-16T23:20:33.446Z,101830.36
2023-07-16T23:23:03.333Z,101827.71
2023-07-16T23:25:31.333Z,101839.52
2023-07-16T23:27:59.290Z,101841.48
2023-07-16T23:30:27.256Z,101844.85
2023-07-16T23:32:55.390Z,101838.51
2023-07-16T23:35:23.284Z,101826.93
2023-07-16T23:37:51.397Z,101813.23
2023-07-16T23:40:20.985Z,101823.53
2023-07-16T23:42:49.585Z,101848.35
2023-07-16T23:45:17.664Z,101849.98
2023-07-16T23:47:45.655Z,101860.05
2023-07-16T23:50:13.848Z,101867.22
2023-07-16T23:52:41.937Z,101841.35
2023-07-16T23:55:11.127Z,101854.98
2023-07-16T23:57:39.245Z,101866.86
